createdAt,value
2019-05-09T00:02:13.813Z,87.71
2019-05-09T00:04:44.480Z,88.06
2019-05-09T00:07:14.733Z,88.57
2019-05-09T00:09:44.987Z,89.18
2019-05-09T00:12:15.178Z,90.53
2019-05-09T00:14:46.607Z,89.88
2019-05-09T00:17:16.867Z,90.54
2019-05-09T00:19:47.004Z,90.29
2019-05-09T00:22:17.141Z,90.93
2019-05-09T00:24:47.380Z,91.51
2019-05-09T00:27:17.501Z,92.50
2019-05-09T00:29:48.862Z,93.21
2019-05-09T00:32:34.050Z,94.11
2019-05-09T00:35:44.245Z,94.69
2019-05-09T00:38:14.473Z,94.71
2019-05-09T00:40:54.989Z,95.47
2019-05-09T00:43:17.371Z,95.40
2019-05-09T00:46:06.438Z,95.55
2019-05-09T00:48:56.260Z,95.77
2019-05-09T00:51:26.604Z,95.67
2019-05-09T00:53:57.908Z,95.46
2019-05-09T01:04:55.160Z,95.64
2019-05-09T01:07:25.562Z,95.66
2019-05-09T01:09:55.698Z,96.02
2019-05-09T01:12:25.972Z,96.02
2019-05-09T01:14:56.106Z,96.34
2019-05-09T01:17:26.337Z,96.83
2019-05-09T01:19:57.259Z,96.54
2019-05-09T01:22:27.504Z,96.64
2019-05-09T01:24:57.833Z,96.71
2019-05-09T01:27:28.016Z,97.18
2019-05-09T01:29:58.388Z,97.46
2019-05-09T01:32:43.357Z,97.43
2019-05-09T01:35:13.542Z,97.42
2019-05-09T01:37:43.760Z,97.23
2019-05-09T01:40:15.442Z,97.70
2019-05-09T01:42:45.558Z,97.48
2019-05-09T01:45:15.998Z,97.47
2019-05-09T01:47:46.318Z,98.00
2019-05-09T01:50:16.531Z,98.59
2019-05-09T01:52:50.380Z,98.64
2019-05-09T01:55:23.481Z,98.82
2019-05-09T01:57:53.924Z,98.77
2019-05-09T02:00:24.258Z,98.87
2019-05-09T02:02:54.364Z,98.76
2019-05-09T02:05:24.573Z,98.74
2019-05-09T02:07:54.588Z,98.78
2019-05-09T02:10:24.782Z,99.27
2019-05-09T02:12:55.029Z,99.29
2019-05-09T02:15:35.111Z,99.16
2019-05-09T02:18:13.616Z,98.98
2019-05-09T02:20:43.929Z,99.09
2019-05-09T02:23:14.359Z,99.93
2019-05-09T02:25:44.710Z,100.00
2019-05-09T02:28:14.827Z,100.00
2019-05-09T02:30:45.230Z,100.00
2019-05-09T02:33:15.315Z,100.00
2019-05-09T02:35:56.400Z,99.81
2019-05-09T02:38:19.986Z,99.51
2019-05-09T02:40:50.994Z,99.61
2019-05-09T02:43:21.125Z,99.50
2019-05-09T02:46:00.773Z,99.43
2019-05-09T02:48:30.795Z,99.65
2019-05-09T02:51:01.205Z,99.95
2019-05-09T02:53:31.346Z,100.00
2019-05-09T02:56:01.529Z,100.00
2019-05-09T02:58:38.730Z,100.00
2019-05-09T03:01:29.103Z,100.00
2019-05-09T03:03:58.989Z,100.00
2019-05-09T03:06:29.498Z,100.00
2019-05-09T03:08:59.681Z,100.00
2019-05-09T03:11:29.989Z,100.00
2019-05-09T03:14:00.213Z,100.00
2019-05-09T03:16:30.607Z,100.00
2019-05-09T03:19:00.748Z,100.00
2019-05-09T03:21:49.185Z,100.00
2019-05-09T03:24:18.769Z,100.00
2019-05-09T03:26:53.937Z,100.00
2019-05-09T03:29:43.246Z,100.00
2019-05-09T03:32:14.428Z,100.00
2019-05-09T03:34:44.649Z,100.00
2019-05-09T03:37:14.768Z,100.00
2019-05-09T03:39:44.923Z,100.00
2019-05-09T03:42:18.104Z,100.00
2019-05-09T03:44:47.790Z,100.00
2019-05-09T03:47:39.938Z,99.90
2019-05-09T03:50:18.925Z,99.55
2019-05-09T03:52:49.160Z,99.41
2019-05-09T03:55:25.161Z,99.21
2019-05-09T03:58:01.197Z,99.28
2019-05-09T04:00:31.443Z,99.20
2019-05-09T04:03:02.741Z,99.42
2019-05-09T04:05:33.048Z,99.43
2019-05-09T04:08:18.907Z,99.47
2019-05-09T04:10:53.158Z,99.65
2019-05-09T04:13:31.605Z,99.69
2019-05-09T04:16:01.863Z,99.46
2019-05-09T04:18:32.098Z,99.40
2019-05-09T04:21:02.755Z,99.39
2019-05-09T04:23:33.512Z,99.72
2019-05-09T04:26:13.033Z,99.97
2019-05-09T04:28:43.409Z,100.00
2019-05-09T04:31:14.799Z,99.61
2019-05-09T04:33:47.229Z,99.28
2019-05-09T04:36:18.313Z,99.12
2019-05-09T04:38:48.543Z,98.97
2019-05-09T04:41:23.943Z,98.71
2019-05-09T04:43:50.612Z,98.65
2019-05-09T04:46:24.288Z,98.92
2019-05-09T04:48:54.186Z,98.47
2019-05-09T04:51:25.047Z,98.15
2019-05-09T04:53:55.258Z,97.96
2019-05-09T04:56:30.427Z,97.67
2019-05-09T04:59:00.772Z,96.60
2019-05-09T05:01:48.610Z,95.50
2019-05-09T05:04:20.138Z,94.75
2019-05-09T05:06:50.703Z,91.96
2019-05-09T05:09:21.587Z,89.55
2019-05-09T05:11:52.122Z,86.31
2019-05-09T05:14:22.281Z,83.86
2019-05-09T05:16:55.291Z,81.04
2019-05-09T05:19:28.614Z,80.67
2019-05-09T05:22:04.789Z,78.28
2019-05-09T05:24:50.834Z,77.36
2019-05-09T05:27:20.967Z,78.52
2019-05-09T05:29:51.239Z,79.09
2019-05-09T05:32:30.231Z,80.32
2019-05-09T05:35:17.756Z,82.61
2019-05-09T05:37:47.895Z,83.98
2019-05-09T05:40:18.257Z,85.41
2019-05-09T05:42:48.576Z,85.91
2019-05-09T05:45:19.152Z,85.59
2019-05-09T05:47:53.978Z,85.69
2019-05-09T05:50:24.547Z,85.83
2019-05-09T05:52:57.979Z,85.09
2019-05-09T05:55:28.670Z,84.90
2019-05-09T05:57:59.168Z,85.39
2019-05-09T06:00:29.297Z,84.81
2019-05-09T06:02:59.532Z,84.70
2019-05-09T06:05:29.785Z,82.84
2019-05-09T06:08:00.033Z,82.99
2019-05-09T06:10:30.267Z,79.21
2019-05-09T06:13:00.435Z,79.98
2019-05-09T06:15:30.575Z,81.35
2019-05-09T06:18:00.918Z,80.90
2019-05-09T06:20:31.160Z,76.88
2019-05-09T06:23:01.363Z,78.15
2019-05-09T06:25:31.525Z,78.35
2019-05-09T06:28:01.683Z,78.71
2019-05-09T06:30:32.324Z,77.44
2019-05-09T06:33:05.163Z,77.49
2019-05-09T06:35:37.967Z,74.64
2019-05-09T06:38:08.049Z,74.57
2019-05-09T06:40:38.416Z,74.07
2019-05-09T06:43:22.871Z,73.46
2019-05-09T06:46:11.884Z,72.73
2019-05-09T06:48:42.240Z,71.64
2019-05-09T06:51:12.533Z,70.14
2019-05-09T06:53:42.812Z,69.99
2019-05-09T06:56:13.316Z,69.04
2019-05-09T06:58:43.827Z,66.53
2019-05-09T07:01:33.254Z,63.28
2019-05-09T07:04:11.934Z,64.11
2019-05-09T07:06:48.240Z,58.85
2019-05-09T07:09:34.704Z,60.08
2019-05-09T07:12:07.673Z,57.68
2019-05-09T07:14:41.285Z,59.55
2019-05-09T07:17:08.867Z,59.72
2019-05-09T07:19:42.934Z,60.06
2019-05-09T07:22:38.971Z,60.80
2019-05-09T07:25:27.631Z,58.71
2019-05-09T07:27:58.685Z,61.03
2019-05-09T07:30:44.604Z,60.95
2019-05-09T07:33:20.787Z,58.22
2019-05-09T07:35:51.442Z,57.26
2019-05-09T07:38:31.655Z,57.22
2019-05-09T07:41:03.811Z,52.41
2019-05-09T07:43:34.059Z,51.95
2019-05-09T07:46:05.629Z,51.90
2019-05-09T07:48:38.083Z,51.96
2019-05-09T07:51:09.497Z,53.95
2019-05-09T07:53:40.121Z,53.70
2019-05-09T07:56:10.552Z,54.72
2019-05-09T07:58:40.685Z,55.17
2019-05-09T08:01:12.033Z,56.42
2019-05-09T08:03:42.283Z,57.51
2019-05-09T08:06:13.262Z,56.67
2019-05-09T08:08:43.500Z,58.42
2019-05-09T08:11:13.728Z,58.56
2019-05-09T08:13:43.909Z,58.97
2019-05-09T08:16:14.820Z,60.30
2019-05-09T08:18:45.391Z,61.47
2019-05-09T08:21:17.853Z,60.93
2019-05-09T08:23:48.580Z,61.52
2019-05-09T08:26:19.156Z,61.89
2019-05-09T08:28:49.920Z,63.12
2019-05-09T08:31:20.463Z,63.69
2019-05-09T08:33:50.641Z,65.67
2019-05-09T08:36:20.848Z,67.25
2019-05-09T08:38:51.129Z,68.27
2019-05-09T08:41:21.360Z,69.74
2019-05-09T08:43:51.807Z,70.86
2019-05-09T08:46:22.460Z,70.61
2019-05-09T08:48:52.650Z,70.56
2019-05-09T08:52:06.279Z,71.10
2019-05-09T08:54:38.192Z,71.98
2019-05-09T08:57:08.413Z,74.48
2019-05-09T08:59:38.575Z,75.38
2019-05-09T09:02:14.842Z,75.90
2019-05-09T09:04:40.962Z,76.52
2019-05-09T09:07:12.361Z,77.02
2019-05-09T09:09:43.854Z,76.12
2019-05-09T09:12:25.896Z,76.31
2019-05-09T09:14:47.893Z,75.95
2019-05-09T09:17:19.423Z,74.99
2019-05-09T09:19:50.593Z,78.58
2019-05-09T09:22:21.055Z,78.07
2019-05-09T09:24:51.618Z,77.02
2019-05-09T09:27:22.320Z,77.93
2019-05-09T09:29:52.839Z,77.97
2019-05-09T09:32:23.306Z,76.92
2019-05-09T09:34:53.741Z,76.20
2019-05-09T09:37:24.944Z,76.97
2019-05-09T09:39:58.333Z,76.64
2019-05-09T09:42:29.024Z,75.08
2019-05-09T09:44:59.874Z,71.05
2019-05-09T09:47:31.821Z,73.06
2019-05-09T09:50:02.638Z,70.67
2019-05-09T09:52:34.521Z,69.57
2019-05-09T09:55:05.424Z,68.24
2019-05-09T09:57:37.814Z,65.96
2019-05-09T10:00:26.724Z,64.37
2019-05-09T10:02:58.718Z,62.77
2019-05-09T10:05:29.383Z,58.89
2019-05-09T10:08:00.196Z,52.51
2019-05-09T10:10:36.416Z,48.41
2019-05-09T10:13:10.346Z,45.28
2019-05-09T10:15:59.974Z,44.28
2019-05-09T10:18:44.849Z,42.34
2019-05-09T10:21:19.196Z,38.72
2019-05-09T10:23:50.670Z,41.46
2019-05-09T10:26:20.925Z,36.72
2019-05-09T10:28:51.824Z,35.38
2019-05-09T10:31:22.153Z,34.44
2019-05-09T10:33:52.330Z,34.96
2019-05-09T10:36:22.603Z,34.27
2019-05-09T10:38:52.954Z,34.79
2019-05-09T10:41:23.448Z,35.28
2019-05-09T10:44:12.716Z,36.11
2019-05-09T10:47:04.788Z,36.83
2019-05-09T10:49:35.190Z,36.83
2019-05-09T10:52:05.590Z,41.57
2019-05-09T10:54:37.365Z,37.33
2019-05-09T10:57:07.778Z,41.26
2019-05-09T10:59:38.008Z,42.50
2019-05-09T11:02:09.518Z,44.17
2019-05-09T11:04:44.195Z,45.01
2019-05-09T11:07:13.373Z,46.05
2019-05-09T11:09:43.774Z,46.05
2019-05-09T11:12:13.928Z,46.94
2019-05-09T11:14:44.304Z,43.75
2019-05-09T11:17:19.318Z,40.62
2019-05-09T11:19:48.514Z,41.59
2019-05-09T11:22:18.801Z,40.67
2019-05-09T11:24:51.144Z,41.91
2019-05-09T11:27:21.173Z,41.98
2019-05-09T11:29:51.369Z,45.15
2019-05-09T11:32:21.802Z,46.17
2019-05-09T11:34:52.192Z,45.98
2019-05-09T11:37:22.647Z,47.42
2019-05-09T11:39:53.969Z,47.68
2019-05-09T11:42:24.125Z,49.42
2019-05-09T11:44:54.410Z,48.00
2019-05-09T11:47:33.614Z,49.95
2019-05-09T11:49:57.769Z,49.49
2019-05-09T11:52:28.992Z,49.83
2019-05-09T11:54:59.814Z,52.78
2019-05-09T11:57:31.455Z,54.25
2019-05-09T12:00:03.321Z,53.89
2019-05-09T12:02:35.452Z,56.34
2019-05-09T12:05:05.877Z,56.15
2019-05-09T12:07:37.891Z,56.93
2019-05-09T12:10:09.067Z,58.85
2019-05-09T12:12:39.370Z,57.64
2019-05-09T12:15:10.069Z,59.41
2019-05-09T12:17:56.602Z,60.56
2019-05-09T12:20:13.724Z,63.41
2019-05-09T12:22:44.616Z,61.30
2019-05-09T12:25:15.134Z,60.14
2019-05-09T12:27:45.506Z,61.37
2019-05-09T12:30:18.681Z,59.46
2019-05-09T12:32:48.391Z,59.26
2019-05-09T12:35:19.071Z,57.87
2019-05-09T12:37:49.702Z,55.79
2019-05-09T12:40:20.285Z,54.72
2019-05-09T12:42:50.904Z,55.29
2019-05-09T12:45:21.482Z,53.83
2019-05-09T12:48:06.446Z,54.91
2019-05-09T12:50:23.735Z,54.68
2019-05-09T12:52:54.229Z,54.56
2019-05-09T12:55:27.567Z,53.81
2019-05-09T12:57:59.438Z,52.78
2019-05-09T13:00:30.206Z,53.57
2019-05-09T13:03:02.555Z,52.42
2019-05-09T13:05:33.724Z,52.74
2019-05-09T13:08:04.100Z,53.33
2019-05-09T13:10:34.861Z,53.98
2019-05-09T13:13:08.319Z,53.78
2019-05-09T13:15:44.003Z,54.62
2019-05-09T13:18:24.611Z,55.19
2019-05-09T13:20:48.745Z,56.50
2019-05-09T13:23:18.575Z,55.90
2019-05-09T13:25:50.418Z,56.45
2019-05-09T13:28:21.006Z,57.14
2019-05-09T13:30:51.459Z,57.10
2019-05-09T13:33:21.732Z,57.57
2019-05-09T13:35:52.087Z,57.80
2019-05-09T13:38:22.765Z,58.66
2019-05-09T13:40:53.936Z,60.80
2019-05-09T13:43:24.362Z,65.17
2019-05-09T13:45:54.677Z,68.07
2019-05-09T13:48:46.786Z,70.18
2019-05-09T13:50:57.781Z,70.57
2019-05-09T13:53:28.458Z,73.03
2019-05-09T13:55:59.126Z,75.59
2019-05-09T13:58:29.340Z,77.03
2019-05-09T14:01:02.684Z,77.12
2019-05-09T14:03:33.617Z,80.34
2019-05-09T14:06:04.228Z,80.93
2019-05-09T14:08:34.684Z,79.44
2019-05-09T14:11:08.093Z,79.96
2019-05-09T14:13:38.550Z,78.86
2019-05-09T14:16:19.265Z,79.16
2019-05-09T14:18:41.939Z,80.23
2019-05-09T14:21:13.754Z,76.80
2019-05-09T14:23:51.050Z,77.80
2019-05-09T14:26:18.022Z,77.23
2019-05-09T14:28:49.139Z,76.36
2019-05-09T14:31:19.669Z,76.37
2019-05-09T14:33:49.889Z,75.82
2019-05-09T14:36:20.087Z,76.07
2019-05-09T14:38:50.210Z,75.64
2019-05-09T14:41:20.536Z,72.73
2019-05-09T14:43:51.291Z,73.36
2019-05-09T14:46:21.885Z,76.12
2019-05-09T14:48:52.505Z,76.45
2019-05-09T14:51:22.848Z,75.49
2019-05-09T14:53:53.076Z,74.37
2019-05-09T14:56:23.317Z,73.29
2019-05-09T14:58:53.712Z,73.25
2019-05-09T15:01:28.420Z,72.09
2019-05-09T15:03:58.558Z,72.98
2019-05-09T15:06:29.167Z,73.24
2019-05-09T15:08:59.427Z,71.70
2019-05-09T15:11:29.845Z,72.60
2019-05-09T15:14:00.344Z,72.93
2019-05-09T15:16:30.748Z,72.65
2019-05-09T15:19:01.343Z,72.79
2019-05-09T15:21:31.484Z,73.07
2019-05-09T15:24:02.336Z,72.69
2019-05-09T15:26:32.772Z,73.83
2019-05-09T15:29:03.143Z,74.67
2019-05-09T15:31:33.689Z,75.04
2019-05-09T15:34:05.119Z,74.75
2019-05-09T15:36:37.766Z,76.42
2019-05-09T15:39:08.348Z,76.86
2019-05-09T15:41:38.805Z,77.10
2019-05-09T15:44:09.310Z,76.67
2019-05-09T15:46:45.736Z,77.98
2019-05-09T15:49:18.208Z,77.41
2019-05-09T15:51:48.195Z,75.48
2019-05-09T15:54:18.605Z,76.02
2019-05-09T15:56:48.964Z,76.02
2019-05-09T15:59:19.763Z,75.49
2019-05-09T16:01:50.131Z,74.79
2019-05-09T16:04:20.500Z,74.54
2019-05-09T16:06:52.070Z,74.85
2019-05-09T16:09:22.866Z,73.27
2019-05-09T16:11:53.066Z,72.95
2019-05-09T16:14:23.604Z,72.37
2019-05-09T16:16:54.084Z,73.02
2019-05-09T16:19:24.467Z,72.02
2019-05-09T16:21:54.819Z,72.93
2019-05-09T16:24:27.850Z,73.81
2019-05-09T16:26:57.905Z,73.53
2019-05-09T16:29:31.952Z,72.96
2019-05-09T16:32:00.075Z,72.47
2019-05-09T16:34:31.059Z,74.10
2019-05-09T16:37:01.634Z,72.27
2019-05-09T16:39:32.001Z,72.42
2019-05-09T16:42:02.261Z,72.03
2019-05-09T16:44:32.817Z,72.02
2019-05-09T16:47:03.241Z,72.34
2019-05-09T16:49:33.599Z,72.86
2019-05-09T16:52:04.213Z,72.08
2019-05-09T16:54:43.333Z,71.87
2019-05-09T16:57:13.697Z,73.81
2019-05-09T16:59:44.040Z,72.03
2019-05-09T17:02:21.433Z,73.18
2019-05-09T17:04:46.506Z,72.25
2019-05-09T17:07:18.044Z,71.94
2019-05-09T17:09:48.720Z,71.54
2019-05-09T17:12:19.133Z,71.57
2019-05-09T17:14:49.433Z,71.69
2019-05-09T17:17:19.631Z,70.84
2019-05-09T17:19:50.118Z,71.96
2019-05-09T17:22:39.530Z,71.32
2019-05-09T17:25:10.125Z,70.94
2019-05-09T17:27:41.563Z,70.11
2019-05-09T17:30:11.993Z,70.92
2019-05-09T17:32:42.256Z,71.29
2019-05-09T17:35:12.910Z,71.66
2019-05-09T17:37:43.235Z,71.31
2019-05-09T17:40:16.121Z,71.76
2019-05-09T17:42:45.692Z,71.83
2019-05-09T17:45:16.480Z,71.99
2019-05-09T17:47:48.546Z,71.58
2019-05-09T17:50:19.506Z,72.16
2019-05-09T17:52:49.970Z,72.93
2019-05-09T17:55:20.570Z,72.44
2019-05-09T17:57:50.808Z,72.70
2019-05-09T18:00:22.188Z,72.76
2019-05-09T18:02:52.895Z,73.05
2019-05-09T18:05:23.686Z,73.83
2019-05-09T18:07:54.194Z,73.92
2019-05-09T18:10:24.819Z,74.66
2019-05-09T18:12:55.159Z,74.75
2019-05-09T18:15:28.101Z,75.23
2019-05-09T18:17:58.616Z,75.98
2019-05-09T18:20:29.375Z,76.79
2019-05-09T18:23:03.039Z,76.97
2019-05-09T18:25:31.839Z,76.98
2019-05-09T18:28:02.669Z,77.08
2019-05-09T18:30:33.236Z,77.34
2019-05-09T18:33:10.951Z,77.25
2019-05-09T18:35:41.644Z,77.42
2019-05-09T18:38:17.919Z,77.45
2019-05-09T18:40:48.368Z,77.59
2019-05-09T18:43:19.006Z,77.59
2019-05-09T18:45:49.900Z,77.37
2019-05-09T18:48:20.176Z,77.84
2019-05-09T18:50:50.641Z,77.49
2019-05-09T18:53:21.211Z,77.84
2019-05-09T18:55:51.751Z,77.80
2019-05-09T18:58:22.056Z,77.83
2019-05-09T19:00:53.034Z,78.06
2019-05-09T19:03:23.548Z,77.92
2019-05-09T19:05:56.456Z,77.92
2019-05-09T19:08:27.075Z,78.77
2019-05-09T19:10:57.920Z,77.72
2019-05-09T19:13:28.318Z,77.44
2019-05-09T19:16:14.876Z,77.39
2019-05-09T19:19:13.464Z,77.10
2019-05-09T19:21:56.039Z,76.53
2019-05-09T19:24:26.853Z,76.92
2019-05-09T19:26:57.335Z,77.02
2019-05-09T19:29:27.882Z,75.98
2019-05-09T19:31:58.150Z,77.63
2019-05-09T19:34:28.528Z,75.92
2019-05-09T19:36:59.266Z,76.29
2019-05-09T19:39:29.649Z,76.01
2019-05-09T19:42:00.226Z,76.71
2019-05-09T19:44:30.882Z,76.83
2019-05-09T19:47:02.064Z,77.00
2019-05-09T19:49:33.682Z,77.05
2019-05-09T19:52:04.303Z,78.92
2019-05-09T19:54:34.802Z,79.07
2019-05-09T19:57:05.711Z,79.98
2019-05-09T19:59:36.014Z,82.05
2019-05-09T20:02:06.877Z,83.98
2019-05-09T20:04:37.396Z,84.82
2019-05-09T20:07:07.831Z,85.32
2019-05-09T20:09:44.792Z,86.36
2019-05-09T20:12:30.744Z,86.88
2019-05-09T20:15:01.362Z,86.40
2019-05-09T20:17:32.517Z,86.93
2019-05-09T20:20:03.071Z,86.93
2019-05-09T20:22:33.975Z,87.38
2019-05-09T20:25:04.980Z,87.59
2019-05-09T20:27:35.441Z,87.97
2019-05-09T20:30:05.756Z,88.20
2019-05-09T20:32:36.085Z,88.41
2019-05-09T20:35:07.106Z,88.63
2019-05-09T20:37:38.787Z,88.42
2019-05-09T20:40:10.008Z,87.99
2019-05-09T20:42:40.676Z,88.36
2019-05-09T20:45:12.668Z,89.31
2019-05-09T20:47:43.470Z,88.94
2019-05-09T20:50:14.756Z,89.49
2019-05-09T20:52:45.399Z,89.77
2019-05-09T20:55:16.068Z,89.99
2019-05-09T20:57:46.773Z,90.17
2019-05-09T21:00:17.385Z,90.40
2019-05-09T21:02:47.960Z,91.50
2019-05-09T21:05:18.788Z,92.45
2019-05-09T21:07:49.299Z,92.03
2019-05-09T21:10:21.095Z,90.68
2019-05-09T21:12:51.688Z,90.63
2019-05-09T21:15:22.230Z,90.45
2019-05-09T21:17:53.110Z,90.15
2019-05-09T21:20:23.766Z,90.55
2019-05-09T21:22:54.700Z,90.94
2019-05-09T21:25:25.848Z,90.68
2019-05-09T21:27:56.306Z,89.68
2019-05-09T21:30:26.962Z,90.41
2019-05-09T21:32:57.435Z,89.25
2019-05-09T21:35:28.840Z,90.47
2019-05-09T21:37:59.310Z,90.25
2019-05-09T21:40:29.743Z,89.92
2019-05-09T21:43:00.032Z,89.46
2019-05-09T21:45:30.446Z,88.72
2019-05-09T21:48:00.778Z,89.68
2019-05-09T21:50:31.411Z,89.18
2019-05-09T21:53:01.905Z,89.62
2019-05-09T21:55:32.132Z,90.36
2019-05-09T21:58:02.781Z,90.06
2019-05-09T22:00:35.843Z,90.30
2019-05-09T22:03:06.933Z,90.94
2019-05-09T22:05:38.475Z,90.96
2019-05-09T22:08:08.747Z,91.30
2019-05-09T22:10:38.952Z,90.69
2019-05-09T22:13:09.225Z,90.95
2019-05-09T22:15:40.410Z,91.48
2019-05-09T22:18:10.579Z,91.70
2019-05-09T22:20:40.921Z,91.92
2019-05-09T22:23:11.207Z,92.51
2019-05-09T22:25:41.908Z,92.74
2019-05-09T22:28:12.217Z,92.50
2019-05-09T22:30:42.576Z,92.02
2019-05-09T22:33:12.744Z,91.80
2019-05-09T22:35:43.008Z,92.28
2019-05-09T22:38:13.310Z,92.71
2019-05-09T22:40:43.937Z,93.26
2019-05-09T22:43:14.170Z,93.94
2019-05-09T22:45:46.245Z,94.10
2019-05-09T22:48:16.747Z,94.97
2019-05-09T22:50:47.111Z,94.93
2019-05-09T22:53:17.271Z,93.80
2019-05-09T22:55:47.463Z,93.73
2019-05-09T22:58:17.724Z,93.43
2019-05-09T23:00:47.987Z,93.56
2019-05-09T23:03:18.166Z,93.44
2019-05-09T23:05:48.484Z,92.90
2019-05-09T23:08:18.918Z,92.71
2019-05-09T23:10:52.848Z,92.96
2019-05-09T23:13:21.415Z,93.59
2019-05-09T23:15:51.685Z,93.93
2019-05-09T23:18:21.982Z,94.02
2019-05-09T23:20:57.364Z,94.43
2019-05-09T23:23:35.679Z,94.45
2019-05-09T23:26:06.197Z,95.24
2019-05-09T23:28:36.426Z,95.42
2019-05-09T23:31:10.299Z,96.03
2019-05-09T23:33:41.593Z,96.21
2019-05-09T23:36:11.792Z,96.27
2019-05-09T23:38:59.751Z,96.30
2019-05-09T23:41:29.978Z,96.95
2019-05-09T23:44:00.161Z,96.83
2019-05-09T23:46:30.513Z,96.99
2019-05-09T23:49:01.048Z,97.40
2019-05-09T23:51:47.809Z,97.17
2019-05-09T23:54:45.939Z,96.64
2019-05-09T23:57:26.739Z,96.99
